createdAt,value
2023-04-02T00:00:07.650Z,20.98
2023-04-02T00:03:01.434Z,24.00
2023-04-02T00:05:56.003Z,19.23
2023-04-02T00:08:38.909Z,17.67
2023-04-02T00:11:30.910Z,16.25
2023-04-02T00:14:06.330Z,19.10
2023-04-02T00:16:41.472Z,19.80
2023-04-02T00:19:18.375Z,17.30
2023-04-02T00:21:52.972Z,18.20
2023-04-02T00:24:25.938Z,16.30
2023-04-02T00:29:31.752Z,20.17
2023-04-02T00:32:05.894Z,19.05
2023-04-02T00:34:39.298Z,21.90
2023-04-02T00:37:23.638Z,21.67
2023-04-02T00:40:01.543Z,22.08
2023-04-02T00:42:36.267Z,19.20
2023-04-02T00:45:20.334Z,19.70
2023-04-02T00:47:54.650Z,21.13
2023-04-02T00:50:31.321Z,16.85
2023-04-02T00:53:11.697Z,22.00
2023-04-02T00:55:45.413Z,15.13
2023-04-02T00:58:23.171Z,18.50
2023-04-02T01:00:56.698Z,19.58
2023-04-02T01:03:36.349Z,19.33
2023-04-02T01:06:12.377Z,17.58
2023-04-02T01:08:57.975Z,18.95
2023-04-02T01:12:00.349Z,20.67
2023-04-02T01:14:44.267Z,17.52
2023-04-02T01:17:31.859Z,15.88
2023-04-02T01:20:34.434Z,22.67
2023-04-02T01:23:16.971Z,14.35
2023-04-02T01:25:55.109Z,17.55
2023-04-02T01:28:38.055Z,16.63
2023-04-02T01:31:12.701Z,18.67
2023-04-02T01:33:45.645Z,16.95
2023-04-02T01:39:04.639Z,21.25
2023-04-02T01:41:43.826Z,22.42
2023-04-02T01:44:24.122Z,16.15
2023-04-02T01:47:00.816Z,18.92
2023-04-02T01:49:34.037Z,19.40
2023-04-02T01:52:07.565Z,17.52
2023-04-02T01:54:41.073Z,14.57
2023-04-02T01:57:14.612Z,18.33
2023-04-02T01:59:47.604Z,15.18
2023-04-02T02:04:55.753Z,14.07
2023-04-02T02:07:29.909Z,17.30
2023-04-02T02:10:03.427Z,15.85
2023-04-02T02:12:36.444Z,21.30
2023-04-02T02:15:16.523Z,16.10
2023-04-02T02:17:51.028Z,17.50
2023-04-02T02:20:24.249Z,14.80
2023-04-02T02:22:58.036Z,14.88
2023-04-02T02:25:34.037Z,14.52
2023-04-02T02:28:10.921Z,15.63
2023-04-02T02:30:48.500Z,21.80
2023-04-02T02:33:26.395Z,14.98
2023-04-02T02:36:06.766Z,13.57
2023-04-02T02:38:53.250Z,12.27
2023-04-02T02:41:41.423Z,14.13
2023-04-02T02:44:20.710Z,15.10
2023-04-02T02:46:57.696Z,12.93
2023-04-02T02:49:34.327Z,12.88
2023-04-02T02:52:16.702Z,17.73
2023-04-02T02:54:59.758Z,13.40
2023-04-02T02:57:40.695Z,15.10
2023-04-02T03:00:16.961Z,13.88
2023-04-02T03:02:50.623Z,13.90
2023-04-02T03:05:29.257Z,15.75
2023-04-02T03:08:17.923Z,15.90
2023-04-02T03:10:56.703Z,11.40
2023-04-02T03:13:35.203Z,13.45
2023-04-02T03:16:16.190Z,12.73
2023-04-02T03:18:55.307Z,14.30
2023-04-02T03:21:37.884Z,14.20
2023-04-02T03:24:17.642Z,14.10
2023-04-02T03:26:57.191Z,11.55
2023-04-02T03:29:33.169Z,13.55
2023-04-02T03:32:13.440Z,15.20
2023-04-02T03:34:50.968Z,12.18
2023-04-02T03:37:30.918Z,15.52
2023-04-02T03:40:09.873Z,12.75
2023-04-02T03:42:47.341Z,13.00
2023-04-02T03:45:23.710Z,13.77
2023-04-02T03:48:00.613Z,11.20
2023-04-02T03:50:39.308Z,12.48
2023-04-02T03:53:13.865Z,9.30
2023-04-02T03:55:46.829Z,10.57
2023-04-02T03:58:25.985Z,8.98
2023-04-02T04:01:05.493Z,12.10
2023-04-02T04:03:42.348Z,9.48
2023-04-02T04:06:22.160Z,10.13
2023-04-02T04:09:00.660Z,9.95
2023-04-02T04:11:36.692Z,9.75
2023-04-02T04:14:17.635Z,10.80
2023-04-02T04:16:56.505Z,10.57
2023-04-02T04:19:39.103Z,10.40
2023-04-02T04:22:17.851Z,11.02
2023-04-02T04:24:54.132Z,11.30
2023-04-02T04:27:34.717Z,12.45
2023-04-02T04:30:18.187Z,9.98
2023-04-02T04:32:58.233Z,9.43
2023-04-02T04:35:35.573Z,8.60
2023-04-02T04:38:15.701Z,9.65
2023-04-02T04:40:54.840Z,9.82
2023-04-02T04:43:39.983Z,11.85
2023-04-02T04:46:19.098Z,9.50
2023-04-02T04:48:58.113Z,8.23
2023-04-02T04:51:35.436Z,9.98
2023-04-02T04:54:13.865Z,9.13
2023-04-02T04:56:52.719Z,9.57
2023-04-02T04:59:30.819Z,8.20
2023-04-02T05:02:12.738Z,10.55
2023-04-02T05:04:50.752Z,11.87
2023-04-02T05:07:29.466Z,10.85
2023-04-02T05:10:09.282Z,8.63
2023-04-02T05:12:52.346Z,10.15
2023-04-02T05:15:31.233Z,9.43
2023-04-02T05:18:19.931Z,10.40
2023-04-02T05:20:57.748Z,11.75
2023-04-02T05:23:35.999Z,9.45
2023-04-02T05:26:14.905Z,10.85
2023-04-02T05:28:55.754Z,10.10
2023-04-02T05:31:37.791Z,9.82
2023-04-02T05:34:12.698Z,9.70
2023-04-02T05:36:48.813Z,9.00
2023-04-02T05:39:23.992Z,9.43
2023-04-02T05:42:04.463Z,9.05
2023-04-02T05:45:09.471Z,11.60
2023-04-02T05:47:45.310Z,10.23
2023-04-02T05:50:30.286Z,10.65
2023-04-02T05:53:09.584Z,13.60
2023-04-02T05:55:51.317Z,9.80
2023-04-02T05:58:36.089Z,11.95
2023-04-02T06:01:42.067Z,9.20
2023-04-02T06:04:27.499Z,10.93
2023-04-02T06:07:05.334Z,10.40
2023-04-02T06:09:44.636Z,10.43
2023-04-02T06:12:24.974Z,14.10
2023-04-02T06:14:58.241Z,11.23
2023-04-02T06:17:47.923Z,9.05
2023-04-02T06:20:21.894Z,10.48
2023-04-02T06:22:58.217Z,9.27
2023-04-02T06:25:35.027Z,10.07
2023-04-02T06:28:15.346Z,14.02
2023-04-02T06:31:02.217Z,11.35
2023-04-02T06:33:42.073Z,9.85
2023-04-02T06:36:15.609Z,12.77
2023-04-02T06:38:50.162Z,8.52
2023-04-02T06:41:25.890Z,11.63
2023-04-02T06:44:14.042Z,7.78
2023-04-02T06:47:12.933Z,9.80
2023-04-02T06:49:51.242Z,9.15
2023-04-02T06:52:29.596Z,8.75
2023-04-02T06:55:08.517Z,11.48
2023-04-02T06:57:43.004Z,10.85
2023-04-02T07:00:29.463Z,8.82
2023-04-02T07:03:07.430Z,12.30
2023-04-02T07:05:43.117Z,10.60
2023-04-02T07:08:16.627Z,11.77
2023-04-02T07:13:31.825Z,11.07
2023-04-02T07:16:05.499Z,13.60
2023-04-02T07:18:38.704Z,12.07
2023-04-02T07:21:14.076Z,9.68
2023-04-02T07:23:48.897Z,8.40
2023-04-02T07:26:23.758Z,11.00
2023-04-02T07:28:57.472Z,9.20
2023-04-02T07:31:30.621Z,9.63
2023-04-02T07:34:03.505Z,7.43
2023-04-02T07:36:37.589Z,10.18
2023-04-02T07:39:10.494Z,9.60
2023-04-02T07:44:25.765Z,12.80
2023-04-02T07:46:58.662Z,11.48
2023-04-02T07:49:31.498Z,10.25
2023-04-02T07:52:05.959Z,9.85
2023-04-02T07:54:39.944Z,9.70
2023-04-02T07:57:13.247Z,9.90
2023-04-02T07:59:46.449Z,8.57
2023-04-02T08:02:22.687Z,8.05
2023-04-02T08:04:55.553Z,7.60
2023-04-02T08:07:29.701Z,8.45
2023-04-02T08:10:02.520Z,12.80
2023-04-02T08:12:35.614Z,10.23
2023-04-02T08:15:09.504Z,7.20
2023-04-02T08:17:43.178Z,6.72
2023-04-02T08:20:18.103Z,7.07
2023-04-02T08:22:52.395Z,7.38
2023-04-02T08:25:25.619Z,7.25
2023-04-02T08:28:01.591Z,10.63
2023-04-02T08:30:34.389Z,9.18
2023-04-02T08:35:40.347Z,6.40
2023-04-02T08:38:16.602Z,8.57
2023-04-02T08:40:51.948Z,8.63
2023-04-02T08:43:45.032Z,8.98
2023-04-02T08:46:25.851Z,9.57
2023-04-02T08:49:01.963Z,5.75
2023-04-02T08:51:38.546Z,10.38
2023-04-02T08:54:18.660Z,8.95
2023-04-02T08:56:55.966Z,5.35
2023-04-02T08:59:33.858Z,7.38
2023-04-02T09:02:30.511Z,8.57
2023-04-02T09:05:08.110Z,8.00
2023-04-02T09:07:42.147Z,7.78
2023-04-02T09:10:17.563Z,11.05
2023-04-02T09:12:53.766Z,6.90
2023-04-02T09:15:34.546Z,6.68
2023-04-02T09:18:15.039Z,8.57
2023-04-02T09:20:49.287Z,5.82
2023-04-02T09:23:25.969Z,10.50
2023-04-02T09:26:04.479Z,7.68
2023-04-02T09:28:38.529Z,10.27
2023-04-02T09:31:20.159Z,8.07
2023-04-02T09:33:54.747Z,7.82
2023-04-02T09:36:35.097Z,7.43
2023-04-02T09:39:18.974Z,11.95
2023-04-02T09:42:04.895Z,9.07
2023-04-02T09:44:38.390Z,9.20
2023-04-02T09:47:28.720Z,6.75
2023-04-02T09:50:14.919Z,6.80
2023-04-02T09:52:48.082Z,7.13
2023-04-02T09:55:27.368Z,10.93
2023-04-02T09:58:14.164Z,9.63
2023-04-02T10:00:52.067Z,7.45
2023-04-02T10:03:27.350Z,10.23
2023-04-02T10:06:09.266Z,5.43
2023-04-02T10:08:43.734Z,8.35
2023-04-02T10:11:22.985Z,8.35
2023-04-02T10:14:02.682Z,6.22
2023-04-02T10:16:41.609Z,11.70
2023-04-02T10:19:24.225Z,9.30
2023-04-02T10:21:59.083Z,8.38
2023-04-02T10:24:31.914Z,8.48
2023-04-02T10:30:03.968Z,6.85
2023-04-02T10:32:41.964Z,8.80
2023-04-02T10:35:25.166Z,7.93
2023-04-02T10:38:17.280Z,7.32
2023-04-02T10:40:57.089Z,11.35
2023-04-02T10:43:50.590Z,9.60
2023-04-02T10:49:14.834Z,7.88
2023-04-02T10:51:55.230Z,6.47
2023-04-02T10:54:39.207Z,8.90
2023-04-02T10:57:23.352Z,10.27
2023-04-02T11:00:00.772Z,6.25
2023-04-02T11:02:40.476Z,6.47
2023-04-02T11:05:20.281Z,7.93
2023-04-02T11:08:01.152Z,6.50
2023-04-02T11:10:39.498Z,7.65
2023-04-02T11:13:19.671Z,8.05
2023-04-02T11:15:53.820Z,5.53
2023-04-02T11:18:34.153Z,6.63
2023-04-02T11:21:08.118Z,11.00
2023-04-02T11:23:57.386Z,14.48
2023-04-02T11:26:38.324Z,6.03
2023-04-02T11:29:23.781Z,4.35
2023-04-02T11:32:16.975Z,6.28
2023-04-02T11:35:24.135Z,6.32
2023-04-02T11:37:58.510Z,7.88
2023-04-02T11:40:49.746Z,8.82
2023-04-02T11:43:51.379Z,5.55
2023-04-02T11:46:46.231Z,5.53
2023-04-02T11:49:36.985Z,7.53
2023-04-02T11:52:28.652Z,6.30
2023-04-02T11:55:24.475Z,7.60
2023-04-02T11:58:05.804Z,7.03
2023-04-02T12:01:14.798Z,7.18
2023-04-02T12:04:11.601Z,5.50
2023-04-02T12:07:10.875Z,7.40
2023-04-02T12:09:47.982Z,3.67
2023-04-02T12:12:27.668Z,6.72
2023-04-02T12:15:01.672Z,6.13
2023-04-02T12:17:37.053Z,4.43
2023-04-02T12:20:22.152Z,5.65
2023-04-02T12:22:57.074Z,4.18
2023-04-02T12:25:33.796Z,5.70
2023-04-02T12:28:17.776Z,4.32
2023-04-02T12:30:52.753Z,3.85
2023-04-02T12:33:30.815Z,8.20
2023-04-02T12:36:05.679Z,6.80
2023-04-02T12:38:47.024Z,5.57
2023-04-02T12:41:24.980Z,7.30
2023-04-02T12:43:59.353Z,6.22
2023-04-02T12:46:35.391Z,6.63
2023-04-02T12:49:23.148Z,4.03
2023-04-02T12:51:57.226Z,4.30
2023-04-02T12:54:32.699Z,7.70
2023-04-02T12:57:40.241Z,5.95
2023-04-02T13:00:32.303Z,6.25
2023-04-02T13:03:21.651Z,6.03
2023-04-02T13:05:56.353Z,6.20
2023-04-02T13:08:33.078Z,4.78
2023-04-02T13:11:07.049Z,5.22
2023-04-02T13:13:44.158Z,4.80
2023-04-02T13:16:30.394Z,2.80
2023-04-02T13:19:22.840Z,7.95
2023-04-02T13:22:16.655Z,8.70
2023-04-02T13:25:07.287Z,8.70
2023-04-02T13:27:42.769Z,8.23
2023-04-02T13:30:30.671Z,8.35
2023-04-02T13:33:16.737Z,4.93
2023-04-02T13:35:52.506Z,7.68
2023-04-02T13:38:29.269Z,4.45
2023-04-02T13:41:02.251Z,4.22
2023-04-02T13:46:20.772Z,7.07
2023-04-02T13:48:55.619Z,8.05
2023-04-02T13:51:37.160Z,6.95
2023-04-02T13:54:15.992Z,3.67
2023-04-02T13:56:49.359Z,5.82
2023-04-02T13:59:25.976Z,8.02
2023-04-02T14:02:07.576Z,4.18
2023-04-02T14:04:44.655Z,6.70
2023-04-02T14:07:45.136Z,3.95
2023-04-02T14:10:26.971Z,5.53
2023-04-02T14:13:13.369Z,3.90
2023-04-02T14:16:06.981Z,5.20
2023-04-02T14:21:42.390Z,6.57
2023-04-02T14:24:21.972Z,6.90
2023-04-02T14:27:07.021Z,6.82
2023-04-02T14:29:45.773Z,8.88
2023-04-02T14:32:25.873Z,7.15
2023-04-02T14:35:06.857Z,3.83
2023-04-02T14:37:53.104Z,4.95
2023-04-02T14:40:30.556Z,9.93
2023-04-02T14:43:08.252Z,6.20
2023-04-02T14:45:55.431Z,5.95
2023-04-02T14:48:41.635Z,7.50
2023-04-02T14:51:23.387Z,5.85
2023-04-02T14:54:03.723Z,7.03
2023-04-02T14:56:40.701Z,5.32
2023-04-02T14:59:26.271Z,5.82
2023-04-02T15:02:04.225Z,8.05
2023-04-02T15:04:44.212Z,7.00
2023-04-02T15:07:23.360Z,6.72
2023-04-02T15:10:09.980Z,5.70
2023-04-02T15:12:46.453Z,6.10
2023-04-02T15:15:37.016Z,5.72
2023-04-02T15:18:15.252Z,4.20
2023-04-02T15:20:58.460Z,4.10
2023-04-02T15:26:21.738Z,6.00
2023-04-02T15:29:05.507Z,6.15
2023-04-02T15:31:41.543Z,4.55
2023-04-02T15:34:24.257Z,4.72
2023-04-02T15:37:08.203Z,5.60
2023-04-02T15:40:02.550Z,5.47
2023-04-02T15:42:40.749Z,5.93
2023-04-02T15:45:26.335Z,6.63
2023-04-02T15:48:24.856Z,4.47
2023-04-02T15:51:10.036Z,4.88
2023-04-02T15:53:56.227Z,5.78
2023-04-02T15:56:46.376Z,4.90
2023-04-02T15:59:42.521Z,6.55
2023-04-02T16:02:50.857Z,4.63
2023-04-02T16:05:36.156Z,5.03
2023-04-02T16:08:27.061Z,5.20
2023-04-02T16:11:00.121Z,6.80
2023-04-02T16:13:36.931Z,3.47
2023-04-02T16:16:15.199Z,7.28
2023-04-02T16:18:56.254Z,6.90
2023-04-02T16:21:34.015Z,3.17
2023-04-02T16:24:12.735Z,5.90
2023-04-02T16:26:55.713Z,5.78
2023-04-02T16:29:53.878Z,6.57
2023-04-02T16:32:53.731Z,7.07
2023-04-02T16:35:43.170Z,7.35
2023-04-02T16:38:30.341Z,4.22
2023-04-02T16:41:11.890Z,6.53
2023-04-02T16:43:58.093Z,6.20
2023-04-02T16:46:42.795Z,4.05
2023-04-02T16:49:26.079Z,4.93
2023-04-02T16:54:52.587Z,4.07
2023-04-02T16:57:38.173Z,5.03
2023-04-02T17:00:22.428Z,4.22
2023-04-02T17:03:10.062Z,6.28
2023-04-02T17:05:53.960Z,3.22
2023-04-02T17:08:28.549Z,5.30
2023-04-02T17:11:11.916Z,4.63
2023-04-02T17:13:53.788Z,6.57
2023-04-02T17:16:39.590Z,5.63
2023-04-02T17:19:16.674Z,5.55
2023-04-02T17:21:53.911Z,5.05
2023-04-02T17:24:29.301Z,5.30
2023-04-02T17:27:07.244Z,5.43
2023-04-02T17:29:44.208Z,5.70
2023-04-02T17:32:22.584Z,2.65
2023-04-02T17:34:57.221Z,7.07
2023-04-02T17:37:35.919Z,5.13
2023-04-02T17:40:25.463Z,5.00
2023-04-02T17:43:06.062Z,4.50
2023-04-02T17:45:47.030Z,6.65
2023-04-02T17:48:27.076Z,7.60
2023-04-02T17:51:11.482Z,5.00
2023-04-02T17:53:53.659Z,3.10
2023-04-02T17:56:59.193Z,3.45
2023-04-02T17:59:44.929Z,4.10
2023-04-02T18:02:36.174Z,3.10
2023-04-02T18:05:18.102Z,4.40
2023-04-02T18:08:04.879Z,5.25
2023-04-02T18:10:47.206Z,3.30
2023-04-02T18:13:33.816Z,3.47
2023-04-02T18:16:38.900Z,4.72
2023-04-02T18:19:32.650Z,5.00
2023-04-02T18:22:14.404Z,3.92
2023-04-02T18:25:06.088Z,3.95
2023-04-02T18:27:56.529Z,3.20
2023-04-02T18:30:37.838Z,3.72
2023-04-02T18:33:36.978Z,4.15
2023-04-02T18:36:28.049Z,3.65
2023-04-02T18:39:07.898Z,6.47
2023-04-02T18:41:55.132Z,3.75
2023-04-02T18:44:43.210Z,3.55
2023-04-02T18:47:24.539Z,4.68
2023-04-02T18:50:12.107Z,4.07
2023-04-02T18:52:46.673Z,4.55
2023-04-02T18:55:24.265Z,7.25
2023-04-02T18:58:04.061Z,3.78
2023-04-02T19:00:44.263Z,4.15
2023-04-02T19:03:24.209Z,7.43
2023-04-02T19:06:03.098Z,4.95
2023-04-02T19:08:48.323Z,6.50
2023-04-02T19:11:30.573Z,5.97
2023-04-02T19:14:12.004Z,5.03
2023-04-02T19:17:05.781Z,6.85
2023-04-02T19:19:44.468Z,6.70
2023-04-02T19:22:39.521Z,4.28
2023-04-02T19:25:31.597Z,3.47
2023-04-02T19:28:13.590Z,5.93
2023-04-02T19:31:04.977Z,3.83
2023-04-02T19:33:46.279Z,6.13
2023-04-02T19:36:35.055Z,4.30
2023-04-02T19:39:32.430Z,3.72
2023-04-02T19:42:18.526Z,5.22
2023-04-02T19:44:53.440Z,4.25
2023-04-02T19:47:28.409Z,4.60
2023-04-02T19:50:02.140Z,5.68
2023-04-02T19:55:08.604Z,5.80
2023-04-02T19:57:42.703Z,3.78
2023-04-02T20:00:18.487Z,3.97
2023-04-02T20:02:56.226Z,5.78
2023-04-02T20:05:38.290Z,5.60
2023-04-02T20:08:15.092Z,5.57
2023-04-02T20:10:50.998Z,6.07
2023-04-02T20:13:26.082Z,4.93
2023-04-02T20:16:01.442Z,4.43
2023-04-02T20:18:37.176Z,7.97
2023-04-02T20:21:11.294Z,4.32
2023-04-02T20:23:44.708Z,5.05
2023-04-02T20:26:18.213Z,5.35
2023-04-02T20:28:51.613Z,4.22
2023-04-02T20:31:24.865Z,4.47
2023-04-02T20:34:00.280Z,6.18
2023-04-02T20:36:33.426Z,4.97
2023-04-02T20:39:08.061Z,4.75
2023-04-02T20:41:41.208Z,7.45
2023-04-02T20:44:14.244Z,4.75
2023-04-02T20:46:47.413Z,5.72
2023-04-02T20:51:54.625Z,5.03
2023-04-02T20:54:27.557Z,3.53
2023-04-02T20:57:00.364Z,4.22
2023-04-02T20:59:33.110Z,7.22
2023-04-02T21:02:05.802Z,4.10
2023-04-02T21:04:39.934Z,5.28
2023-04-02T21:07:12.861Z,4.85
2023-04-02T21:09:45.648Z,3.60
2023-04-02T21:12:18.487Z,4.63
2023-04-02T21:14:56.778Z,3.78
2023-04-02T21:17:29.952Z,7.88
2023-04-02T21:20:04.462Z,6.47
2023-04-02T21:22:37.303Z,4.70
2023-04-02T21:25:11.003Z,2.83
2023-04-02T21:27:44.247Z,9.65
2023-04-02T21:30:17.381Z,4.38
2023-04-02T21:32:50.290Z,7.50
2023-04-02T21:35:24.403Z,4.15
2023-04-02T21:37:57.238Z,4.32
2023-04-02T21:40:29.995Z,3.70
2023-04-02T21:43:02.706Z,8.35
2023-04-02T21:45:35.768Z,2.92
2023-04-02T21:48:08.773Z,3.70
2023-04-02T21:50:42.882Z,3.55
2023-04-02T21:53:15.599Z,7.38
2023-04-02T21:55:48.394Z,4.63
2023-04-02T21:58:21.103Z,3.78
2023-04-02T22:00:54.154Z,5.00
2023-04-02T22:06:08.335Z,6.45
2023-04-02T22:08:43.174Z,4.75
2023-04-02T22:11:17.921Z,5.00
2023-04-02T22:13:51.301Z,3.65
2023-04-02T22:16:26.658Z,4.75
2023-04-02T22:19:01.907Z,3.88
2023-04-02T22:21:37.400Z,5.35
2023-04-02T22:24:14.060Z,3.15
2023-04-02T22:26:47.490Z,5.35
2023-04-02T22:29:20.368Z,3.38
2023-04-02T22:34:25.836Z,3.90
2023-04-02T22:36:59.957Z,5.78
2023-04-02T22:39:32.819Z,7.13
2023-04-02T22:42:05.567Z,7.75
2023-04-02T22:44:38.301Z,3.90
2023-04-02T22:47:11.121Z,6.90
2023-04-02T22:52:17.936Z,2.80
2023-04-02T22:54:50.674Z,5.43
2023-04-02T22:57:23.436Z,3.70
2023-04-02T22:59:56.220Z,3.70
2023-04-02T23:02:29.005Z,5.07
2023-04-02T23:05:01.717Z,5.97
2023-04-02T23:07:36.579Z,3.70
2023-04-02T23:10:09.973Z,4.57
2023-04-02T23:12:42.657Z,3.75
2023-04-02T23:15:15.641Z,4.10
2023-04-02T23:20:21.249Z,4.35
2023-04-02T23:22:55.699Z,2.65
2023-04-02T23:25:28.520Z,2.85
2023-04-02T23:28:01.240Z,4.13
2023-04-02T23:30:34.518Z,3.95
2023-04-02T23:33:07.588Z,5.60
2023-04-02T23:38:16.764Z,5.70
2023-04-02T23:40:49.561Z,3.33
2023-04-02T23:43:22.277Z,3.80
2023-04-02T23:45:55.090Z,3.45
2023-04-02T23:48:27.770Z,2.95
2023-04-02T23:51:00.562Z,2.55
2023-04-02T23:53:35.652Z,4.43
2023-04-02T23:56:08.838Z,4.15
2023-04-02T23:58:41.677Z,1.90
